Jonesville, Illinois
Current Conditions -  °F | °C
As of 2:55 PM on Tuesday 27 Jan 2015 (Local Time) from KVYS Reporting Station
Overcast Overcast  
Wind Chill: 31°   Ceiling: 1800
Heat Index: 31°   Visibility: 10mi
Dew Point: 26°   Wind: 0mph
Humidity: 83%   Direction: NA
Pressure: 30.21"   Gusts: NA
Location:  41.2837°N, 89.0395°W
Report Text: KVYS 272055Z AUTO 00000KT 10SM OVC018 00/M03 A3021 RMK AO2 T10051031
Loading
Personal Weather Stations






























Interactive Weather Map New forecast layout! Learn more

10-Day Weather Forecast

Advertisements
Track Severe Weather on mobile